Time;durP1;ratioP1;P1;durP2;ratioP2;P2;SDS_P1;SDS_P2;PMS_P1;PMS_P2;Temp;Humidity;BMP_temperature;BMP_pressure;BME280_temperature;BME280_humidity;BME280_pressure;Samples;Min_cycle;Max_cycle;Signal;HPM_P1;HPM_P2
2023/03/04 00:00:17;;;;;;;12.57;8.77;;;;;;;16.15;51.80;97053.63;10299108;28;20403;-31
2023/03/04 00:05:17;;;;;;;11.25;8.55;;;;;;;16.13;52.13;97058.66;10290085;28;20308;-31
2023/03/04 00:10:18;;;;;;;9.47;8.43;;;;;;;16.16;50.97;97056.19;10292906;28;20046;-31
2023/03/04 00:15:18;;;;;;;13.15;8.82;;;;;;;16.17;50.42;97062.94;10289275;28;20043;-31
2023/03/04 00:20:18;;;;;;;12.17;8.07;;;;;;;16.20;50.27;97062.97;10296468;28;20031;-31
2023/03/04 00:25:19;;;;;;;13.50;8.23;;;;;;;16.21;50.43;97059.59;10290751;28;20042;-31
2023/03/04 00:30:19;;;;;;;10.70;8.37;;;;;;;16.21;49.89;97059.59;10297286;28;20045;-31
2023/03/04 00:35:19;;;;;;;10.07;7.38;;;;;;;16.22;50.12;97066.38;10271803;28;20177;-32
2023/03/04 00:40:20;;;;;;;9.50;7.17;;;;;;;16.20;50.43;97068.00;10289297;28;20043;-30
2023/03/04 00:45:20;;;;;;;9.53;7.83;;;;;;;16.21;50.00;97077.28;10288735;28;20336;-31
2023/03/04 00:50:20;;;;;;;10.83;7.57;;;;;;;16.21;50.09;97074.75;10278283;28;20386;-31
2023/03/04 00:55:21;;;;;;;9.20;7.77;;;;;;;16.21;49.56;97069.72;10283031;28;20093;-31
2023/03/04 01:00:22;;;;;;;10.00;7.30;;;;;;;16.22;50.14;97068.91;10289596;28;20042;-32
2023/03/04 01:05:22;;;;;;;9.65;7.57;;;;;;;16.21;49.99;97066.34;10294615;28;20377;-31
2023/03/04 01:10:23;;;;;;;9.10;6.90;;;;;;;16.18;49.79;97062.09;10270545;28;20541;-31
2023/03/04 01:15:23;;;;;;;9.40;7.63;;;;;;;16.17;51.04;97067.13;10287755;28;20031;-31
2023/03/04 01:20:23;;;;;;;9.40;6.93;;;;;;;16.14;50.96;97065.41;10278742;28;20058;-30
2023/03/04 01:25:24;;;;;;;10.27;7.10;;;;;;;16.14;50.66;97057.84;10273714;28;20295;-31
2023/03/04 01:30:24;;;;;;;13.10;7.60;;;;;;;16.13;50.45;97056.13;10288626;28;20047;-31
2023/03/04 01:35:25;;;;;;;7.55;6.47;;;;;;;16.10;50.48;97053.56;10277699;28;20062;-31
2023/03/04 01:40:26;;;;;;;8.43;6.83;;;;;;;16.10;50.41;97051.03;10301019;28;20030;-30
2023/03/04 01:45:34;;;;;;;8.83;7.03;;;;;;;16.08;50.66;97046.78;10303099;28;20587;-32
2023/03/04 01:50:35;;;;;;;7.72;6.43;;;;;;;16.08;50.66;97041.72;10295156;28;20332;-31
2023/03/04 01:55:35;;;;;;;10.07;7.05;;;;;;;16.06;50.80;97039.22;10274500;28;20583;-31
2023/03/04 02:00:36;;;;;;;9.13;6.80;;;;;;;16.06;50.79;97033.28;10302986;28;20036;-31
2023/03/04 02:05:40;;;;;;;8.20;6.75;;;;;;;16.05;50.54;97029.06;10326839;28;20026;-31
2023/03/04 02:10:42;;;;;;;8.00;6.28;;;;;;;16.06;50.64;97029.09;10292976;28;20537;-31
2023/03/04 02:15:46;;;;;;;8.10;6.75;;;;;;;16.06;50.59;97028.25;10291099;28;20045;-31
2023/03/04 02:21:14;;;;;;;8.40;6.38;;;;;;;16.03;50.70;97024.00;10310514;28;20035;-31
2023/03/04 02:26:26;;;;;;;7.13;6.43;;;;;;;16.00;50.76;97029.00;10313510;28;20035;-32
2023/03/04 02:31:30;;;;;;;7.80;6.80;;;;;;;16.06;50.87;97021.53;10332308;28;20093;-31
2023/03/04 02:36:33;;;;;;;9.25;7.20;;;;;;;16.07;50.83;97028.28;10308390;28;20041;-31
2023/03/04 02:41:34;;;;;;;10.93;6.40;;;;;;;16.08;50.56;97027.44;10296453;28;20035;-32
2023/03/04 02:46:34;;;;;;;7.65;6.03;;;;;;;16.08;50.67;97024.91;10313754;28;20069;-31
2023/03/04 02:51:35;;;;;;;8.25;6.20;;;;;;;16.07;50.36;97023.22;10309101;28;20031;-31
2023/03/04 02:56:36;;;;;;;8.32;6.20;;;;;;;16.05;50.72;97022.38;10311547;28;20041;-31
2023/03/04 03:01:36;;;;;;;8.00;6.43;;;;;;;16.04;50.85;97028.22;10315846;28;20393;-31
2023/03/04 03:06:37;;;;;;;7.30;6.07;;;;;;;16.03;50.68;97026.50;10323352;28;20034;-31
2023/03/04 03:11:38;;;;;;;6.82;5.82;;;;;;;15.98;50.53;97020.56;10317851;28;20073;-31
2023/03/04 03:16:38;;;;;;;7.00;6.30;;;;;;;15.98;50.80;97025.63;10307447;28;20069;-31
2023/03/04 03:21:39;;;;;;;7.10;5.65;;;;;;;16.01;50.37;97030.69;10308544;28;20034;-31
2023/03/04 03:26:40;;;;;;;6.63;5.88;;;;;;;16.00;50.60;97034.06;10313509;28;20041;-30
2023/03/04 03:31:41;;;;;;;8.32;6.03;;;;;;;16.07;50.20;97030.81;10323080;28;20072;-31
2023/03/04 03:36:42;;;;;;;7.73;6.43;;;;;;;16.08;49.59;97027.44;10322004;28;20085;-31
2023/03/04 03:41:42;;;;;;;9.55;7.38;;;;;;;16.10;49.83;97033.34;10330326;28;20521;-31
2023/03/04 03:46:42;;;;;;;7.70;6.03;;;;;;;16.12;49.25;97039.28;10322884;28;20490;-32
2023/03/04 03:51:43;;;;;;;6.83;6.13;;;;;;;16.16;49.78;97035.97;10322827;28;20050;-31
2023/03/04 03:56:43;;;;;;;6.25;5.57;;;;;;;16.14;49.68;97027.53;10322376;28;20045;-31
2023/03/04 04:01:44;;;;;;;6.50;5.67;;;;;;;16.16;49.67;97035.97;10330012;28;20395;-31
2023/03/04 04:06:44;;;;;;;7.13;5.93;;;;;;;16.18;49.59;97033.47;10334088;28;20105;-31
2023/03/04 04:11:45;;;;;;;7.03;5.75;;;;;;;16.16;49.10;97043.56;10341784;28;20060;-30
2023/03/04 04:16:46;;;;;;;6.63;5.53;;;;;;;16.17;49.53;97040.19;10317423;28;20045;-31
2023/03/04 04:21:47;;;;;;;5.80;4.97;;;;;;;16.17;49.59;97044.38;10303985;28;20038;-32
2023/03/04 04:26:47;;;;;;;5.85;5.25;;;;;;;16.16;49.24;97043.56;10304529;28;20042;-31
2023/03/04 04:31:48;;;;;;;6.43;5.00;;;;;;;16.11;50.10;97039.28;10313132;28;20125;-32
2023/03/04 04:36:48;;;;;;;7.05;5.90;;;;;;;16.10;49.66;97035.88;10322264;28;20309;-31
2023/03/04 04:41:48;;;;;;;6.77;5.23;;;;;;;16.06;50.09;97040.88;10328619;28;20109;-31
2023/03/04 04:46:49;;;;;;;5.90;4.85;;;;;;;16.00;50.15;97039.09;10327990;28;20042;-31
2023/03/04 04:51:49;;;;;;;7.27;5.13;;;;;;;16.00;50.26;97041.63;10319927;28;20053;-31
2023/03/04 04:56:49;;;;;;;8.10;5.50;;;;;;;15.97;50.20;97034.03;10304134;28;20038;-31
2023/03/04 05:01:50;;;;;;;6.43;5.63;;;;;;;16.07;49.90;97038.38;10320517;28;20290;-31
2023/03/04 05:06:51;;;;;;;6.22;4.93;;;;;;;16.09;49.97;97040.91;10320083;28;20061;-31
2023/03/04 05:11:52;;;;;;;8.47;5.73;;;;;;;16.14;49.66;97041.84;10318791;28;20115;-31
2023/03/04 05:16:52;;;;;;;6.97;5.05;;;;;;;16.15;49.58;97039.34;10312258;28;20093;-32
2023/03/04 05:21:53;;;;;;;7.13;5.38;;;;;;;16.15;49.65;97044.38;10320274;28;20031;-31
2023/03/04 05:26:53;;;;;;;8.17;5.10;;;;;;;16.13;49.84;97035.91;10311159;28;20038;-31
2023/03/04 05:31:53;;;;;;;5.93;4.60;;;;;;;16.11;49.87;97042.63;10311174;28;20046;-31
2023/03/04 05:36:54;;;;;;;5.57;4.97;;;;;;;16.08;50.25;97047.66;10310349;28;20046;-30
2023/03/04 05:41:54;;;;;;;5.80;5.17;;;;;;;16.05;50.26;97047.63;10296382;28;20790;-31
2023/03/04 05:46:55;;;;;;;5.63;5.13;;;;;;;16.04;50.11;97045.88;10319718;28;20297;-31
2023/03/04 05:51:55;;;;;;;6.17;4.70;;;;;;;16.03;49.84;97041.66;10319762;28;20297;-31
2023/03/04 05:56:55;;;;;;;5.77;4.97;;;;;;;16.02;49.97;97039.13;10326660;28;20105;-31
2023/03/04 06:01:56;;;;;;;7.93;5.00;;;;;;;16.02;50.19;97042.50;10317354;28;20023;-31
2023/03/04 06:06:56;;;;;;;5.77;4.63;;;;;;;15.97;50.21;97046.66;10328340;28;20042;-32
2023/03/04 06:11:56;;;;;;;6.27;4.93;;;;;;;15.95;50.19;97044.91;10325038;28;20948;-31
2023/03/04 06:16:57;;;;;;;6.23;4.77;;;;;;;15.95;50.52;97055.03;10318678;28;20469;-31
2023/03/04 06:21:58;;;;;;;5.70;5.13;;;;;;;15.95;50.03;97055.84;10334542;28;20398;-32
2023/03/04 06:26:59;;;;;;;5.28;3.88;;;;;;;16.01;49.85;97066.06;10327777;28;20458;-31
2023/03/04 06:31:59;;;;;;;8.10;4.65;;;;;;;16.09;49.16;97056.91;10325632;28;20034;-31
2023/03/04 06:37:00;;;;;;;5.60;4.77;;;;;;;16.13;49.69;97068.75;10334067;28;20034;-31
2023/03/04 06:42:00;;;;;;;5.90;5.10;;;;;;;16.14;49.50;97067.09;10324028;28;20289;-31
2023/03/04 06:47:00;;;;;;;5.63;5.13;;;;;;;16.15;49.12;97066.25;10321104;28;20038;-31
2023/03/04 06:52:03;;;;;;;6.73;5.03;;;;;;;16.17;48.71;97075.56;10317226;28;20042;-32
2023/03/04 06:57:03;;;;;;;5.55;4.80;;;;;;;16.06;49.27;97059.41;10332568;28;20030;-31
2023/03/04 07:02:04;;;;;;;5.43;4.60;;;;;;;16.17;48.80;97087.31;10343040;28;20398;-31
2023/03/04 07:07:04;;;;;;;12.35;4.80;;;;;;;16.13;49.79;97090.66;10345444;28;20289;-32
2023/03/04 07:12:05;;;;;;;10.27;5.07;;;;;;;16.13;50.46;97091.47;10348048;28;20084;-32
2023/03/04 07:17:05;;;;;;;6.65;5.53;;;;;;;16.14;50.64;97093.22;10351777;28;20044;-31
2023/03/04 07:22:05;;;;;;;5.50;4.97;;;;;;;16.12;51.09;97099.06;10340836;28;20491;-31
2023/03/04 07:27:06;;;;;;;9.67;6.10;;;;;;;16.11;51.24;97100.72;10336624;28;20297;-31
2023/03/04 07:32:07;;;;;;;7.93;5.17;;;;;;;16.22;49.97;97109.34;10331390;28;20041;-32
2023/03/04 07:37:08;;;;;;;7.63;6.25;;;;;;;16.23;49.44;97102.59;10334076;28;20030;-31
2023/03/04 07:42:08;;;;;;;15.57;6.95;;;;;;;16.14;50.17;97115.06;10330081;28;20038;-32
2023/03/04 07:47:13;;;;;;;19.83;10.80;;;;;;;16.16;48.73;97096.59;10310273;28;20041;-31
2023/03/04 07:52:14;;;;;;;14.88;9.60;;;;;;;16.20;49.37;97110.97;10331018;28;20056;-31
2023/03/04 07:57:14;;;;;;;13.87;9.57;;;;;;;16.21;49.76;97125.28;10330389;28;20034;-32
2023/03/04 08:02:17;;;;;;;12.27;8.63;;;;;;;16.23;49.04;97126.19;10313045;28;20026;-30
2023/03/04 08:07:17;;;;;;;12.82;8.40;;;;;;;16.22;49.32;97137.13;10330856;28;20400;-30
2023/03/04 08:12:17;;;;;;;10.33;7.80;;;;;;;16.13;50.17;97136.13;10325554;28;20044;-31
2023/03/04 08:17:18;;;;;;;15.60;8.30;;;;;;;16.18;49.39;97137.88;10337029;28;20023;-31
2023/03/04 08:22:18;;;;;;;15.90;8.18;;;;;;;16.18;48.51;97130.31;10334701;28;20281;-31
2023/03/04 08:27:21;;;;;;;16.37;8.23;;;;;;;16.16;49.11;97137.00;10323097;28;20037;-31
2023/03/04 08:32:21;;;;;;;11.95;8.70;;;;;;;16.11;49.30;97127.66;10319776;28;20027;-31
2023/03/04 08:37:22;;;;;;;12.18;7.38;;;;;;;16.11;49.01;97128.50;10327569;28;20030;-31
2023/03/04 08:42:23;;;;;;;12.38;7.72;;;;;;;16.12;49.65;97130.19;10307203;28;20035;-31
2023/03/04 08:47:23;;;;;;;21.63;7.90;;;;;;;16.16;48.87;97138.69;10308140;28;20039;-31
2023/03/04 08:52:24;;;;;;;12.10;7.67;;;;;;;16.19;49.55;97144.63;10297697;28;20407;-31
2023/03/04 08:57:24;;;;;;;20.10;10.80;;;;;;;16.06;49.91;97145.28;10312437;28;20056;-30
2023/03/04 09:02:24;;;;;;;25.23;12.13;;;;;;;16.05;48.62;97146.09;10321069;28;20445;-30
2023/03/04 09:07:25;;;;;;;23.17;14.43;;;;;;;15.94;46.11;97165.25;10330175;28;20347;-31
2023/03/04 09:12:25;;;;;;;30.20;21.23;;;;;;;15.51;44.75;97167.84;10319399;28;21090;-31
2023/03/04 09:17:26;;;;;;;35.40;19.17;;;;;;;15.85;45.73;97166.81;10326390;28;20301;-31
2023/03/04 09:22:26;;;;;;;29.27;16.30;;;;;;;15.98;46.57;97161.97;10327565;28;20022;-31
2023/03/04 09:27:27;;;;;;;21.70;15.27;;;;;;;16.07;46.61;97161.25;10319178;28;20781;-31
2023/03/04 09:32:27;;;;;;;20.38;13.00;;;;;;;16.08;47.66;97163.81;10326843;28;20045;-31
2023/03/04 09:37:27;;;;;;;19.15;14.23;;;;;;;16.11;47.46;97163.88;10334215;28;20047;-31
2023/03/04 09:42:37;;;;;;;15.57;11.40;;;;;;;16.13;48.32;97157.16;10326239;28;20034;-32
2023/03/04 09:47:37;;;;;;;20.00;11.98;;;;;;;16.16;48.31;97159.75;10317900;28;20293;-31
2023/03/04 09:53:16;;;;;;;24.80;11.75;;;;;;;16.07;49.76;97159.59;10328633;28;20221;-31
2023/03/04 09:59:00;;;;;;;24.20;9.95;;;;;;;16.18;48.45;97142.94;10287200;28;20051;-33
2023/03/04 10:04:16;;;;;;;15.82;9.00;;;;;;;16.17;49.83;97132.78;10222734;28;20496;-31
2023/03/04 10:09:22;;;;;;;28.27;8.90;;;;;;;16.18;49.25;97145.47;10302389;28;20088;-31
2023/03/04 10:14:32;;;;;;;20.50;10.27;;;;;;;16.16;48.30;97147.13;10324901;28;20040;-31
2023/03/04 10:19:54;;;;;;;30.80;12.73;;;;;;;16.07;47.66;97138.53;10326698;28;20281;-31
2023/03/04 10:25:07;;;;;;;23.67;13.90;;;;;;;16.02;48.44;97143.50;10321727;28;20077;-31
2023/03/04 10:30:33;;;;;;;26.50;11.35;;;;;;;16.10;48.27;97141.97;10324189;28;20038;-31
2023/03/04 10:35:36;;;;;;;24.13;10.80;;;;;;;16.11;48.64;97142.81;10326416;28;20041;-31
2023/03/04 10:40:39;;;;;;;18.13;11.25;;;;;;;16.11;49.08;97141.13;10330506;28;20026;-30
2023/03/04 10:45:39;;;;;;;16.23;8.43;;;;;;;16.11;48.98;97128.50;10333155;28;20030;-32
2023/03/04 10:50:40;;;;;;;17.05;9.15;;;;;;;16.10;49.02;97129.34;10333397;28;20416;-31
2023/03/04 10:55:43;;;;;;;13.97;8.90;;;;;;;16.09;49.50;97130.16;10332818;28;20032;-31
2023/03/04 11:00:48;;;;;;;16.52;8.75;;;;;;;16.11;49.07;97128.50;10330143;28;20290;-32
2023/03/04 11:05:49;;;;;;;14.30;8.27;;;;;;;16.12;49.21;97126.84;10333010;28;20088;-31
2023/03/04 11:10:51;;;;;;;12.82;8.63;;;;;;;16.12;49.37;97120.09;10332088;28;20044;-30
2023/03/04 11:15:59;;;;;;;11.52;7.88;;;;;;;16.13;49.07;97121.78;10329929;28;20084;-31
2023/03/04 11:21:00;;;;;;;13.13;7.75;;;;;;;16.10;49.89;97121.75;10324564;28;20097;-30
2023/03/04 11:26:20;;;;;;;10.77;7.63;;;;;;;16.04;50.57;97114.06;10330079;28;20092;-31
2023/03/04 11:31:31;;;;;;;11.55;7.72;;;;;;;16.07;51.12;97113.28;10331157;28;20042;-31
2023/03/04 11:36:54;;;;;;;10.90;7.30;;;;;;;16.10;50.47;97096.50;10331272;28;20031;-30
2023/03/04 11:42:04;;;;;;;18.42;11.77;;;;;;;16.06;50.72;97092.25;10328118;28;20022;-30
2023/03/04 11:47:22;;;;;;;28.60;11.25;;;;;;;15.99;52.02;97092.97;10327385;28;20064;-31
2023/03/04 11:52:53;;;;;;;19.60;10.35;;;;;;;16.04;51.01;97086.28;10331029;28;20069;-31
2023/03/04 11:58:24;;;;;;;15.43;10.70;;;;;;;16.04;50.84;97071.13;10327141;28;20042;-31
2023/03/04 12:04:01;;;;;;;33.90;15.15;;;;;;;15.92;50.91;97067.59;10327958;28;20022;-31
2023/03/04 12:09:34;;;;;;;17.88;11.88;;;;;;;15.97;51.35;97054.22;10322258;28;20117;-31
2023/03/04 12:15:07;;;;;;;15.38;10.13;;;;;;;15.98;52.51;97048.34;10295860;28;20452;-32
2023/03/04 12:20:24;;;;;;;15.40;10.27;;;;;;;15.98;52.77;97044.97;10322688;28;20034;-32
2023/03/04 12:25:36;;;;;;;21.90;9.57;;;;;;;15.99;52.31;97039.94;10328538;28;20030;-31
2023/03/04 12:30:42;;;;;;;16.63;8.13;;;;;;;15.98;52.27;97035.72;10325455;28;20088;-31
2023/03/04 12:35:57;;;;;;;16.47;9.13;;;;;;;16.03;52.11;97029.03;10329485;28;20085;-31
2023/03/04 12:41:12;;;;;;;15.88;9.05;;;;;;;16.01;53.92;97018.06;10327855;28;20026;-30
2023/03/04 12:46:39;;;;;;;15.98;10.85;;;;;;;16.01;53.63;97015.56;10297327;28;20453;-31
2023/03/04 12:52:00;;;;;;;16.00;10.27;;;;;;;15.97;52.12;97001.19;10328747;28;20034;-31
2023/03/04 12:57:11;;;;;;;20.88;11.18;;;;;;;16.07;51.87;97003.03;10329116;28;20034;-31
2023/03/04 13:02:34;;;;;;;20.73;10.23;;;;;;;16.05;51.76;97007.22;10333417;28;20052;-31
2023/03/04 13:08:01;;;;;;;24.67;11.63;;;;;;;16.00;53.45;96998.72;10331053;28;20546;-31
2023/03/04 13:13:02;;;;;;;33.10;11.20;;;;;;;16.02;53.52;96993.69;10292530;28;20050;-31
2023/03/04 13:18:18;;;;;;;25.23;11.20;;;;;;;16.08;51.23;96981.13;10334149;28;20418;-31
2023/03/04 13:23:26;;;;;;;25.33;11.60;;;;;;;16.10;51.84;96980.31;10326820;28;20113;-31
2023/03/04 13:28:31;;;;;;;28.02;10.13;;;;;;;16.12;51.38;96958.44;10334329;28;20117;-31
2023/03/04 13:33:34;;;;;;;25.20;11.70;;;;;;;16.17;51.64;96974.53;10325025;28;20495;-31
2023/03/04 13:38:37;;;;;;;24.90;14.18;;;;;;;16.19;51.34;96970.34;10342078;28;20037;-31
2023/03/04 13:43:40;;;;;;;24.80;12.77;;;;;;;16.22;51.38;96972.06;10315576;28;20026;-30
2023/03/04 13:48:42;;;;;;;22.40;12.90;;;;;;;16.26;51.22;96977.16;10330268;28;20034;-31
2023/03/04 13:54:13;;;;;;;18.23;13.40;;;;;;;16.29;51.04;96967.09;10330194;28;20038;-31
2023/03/04 13:59:40;;;;;;;24.58;12.95;;;;;;;16.41;51.31;96969.81;10301406;28;20049;-31
2023/03/04 14:04:53;;;;;;;27.23;14.68;;;;;;;16.65;50.21;96972.63;10331857;28;20030;-31
2023/03/04 14:09:53;;;;;;;22.17;12.25;;;;;;;16.63;50.39;96959.09;10340616;28;20073;-31
2023/03/04 14:14:56;;;;;;;17.23;12.10;;;;;;;16.62;51.04;96961.63;10337805;28;20072;-32
2023/03/04 14:19:57;;;;;;;19.70;11.63;;;;;;;16.51;51.33;96958.97;10353675;28;20033;-32
2023/03/04 14:25:01;;;;;;;29.67;13.18;;;;;;;16.55;51.81;96949.75;10338707;28;20040;-31
2023/03/04 14:30:05;;;;;;;32.05;13.32;;;;;;;16.54;51.33;96943.84;10327901;28;20112;-31
2023/03/04 14:35:19;;;;;;;21.40;11.52;;;;;;;16.50;52.05;96931.16;10332515;28;20568;-33
2023/03/04 14:40:26;;;;;;;18.02;11.27;;;;;;;16.50;50.24;96931.16;10328950;28;20030;-31
2023/03/04 14:45:28;;;;;;;15.98;10.20;;;;;;;16.49;50.72;96927.78;10339877;28;20034;-32
2023/03/04 14:50:29;;;;;;;13.75;10.05;;;;;;;16.52;50.52;96929.50;10324501;28;20043;-32
2023/03/04 14:55:29;;;;;;;14.63;9.82;;;;;;;16.52;50.60;96920.22;10323962;28;20173;-32
2023/03/04 15:00:33;;;;;;;18.95;10.05;;;;;;;16.45;49.34;96925.22;10324636;28;20037;-32
2023/03/04 15:05:35;;;;;;;15.75;10.30;;;;;;;16.50;50.15;96932.00;10331918;28;20034;-32
2023/03/04 15:10:37;;;;;;;16.60;9.68;;;;;;;16.57;49.54;96930.38;10333400;28;20034;-32
2023/03/04 15:15:43;;;;;;;14.07;8.45;;;;;;;16.56;50.00;96921.97;10339586;28;20446;-32
2023/03/04 15:20:52;;;;;;;18.45;8.95;;;;;;;16.57;49.78;96912.69;10327374;28;20030;-32
2023/03/04 15:25:55;;;;;;;13.85;8.13;;;;;;;16.53;50.81;96911.81;10353903;28;20033;-33
2023/03/04 15:30:55;;;;;;;15.13;9.30;;;;;;;16.56;50.43;96905.94;10318281;28;20049;-33
2023/03/04 15:35:59;;;;;;;17.27;11.10;;;;;;;16.61;50.70;96915.28;10321716;28;20042;-33
2023/03/04 15:40:59;;;;;;;21.73;11.13;;;;;;;16.60;50.78;96913.59;10334881;28;20085;-33
2023/03/04 15:45:59;;;;;;;18.00;11.25;;;;;;;16.61;50.41;96912.75;10312506;28;20125;-32
2023/03/04 15:51:01;;;;;;;25.17;12.43;;;;;;;16.57;52.20;96918.63;10316329;28;20034;-33
2023/03/04 15:56:07;;;;;;;45.72;17.70;;;;;;;16.59;51.43;96916.94;10343697;28;20084;-32
2023/03/04 16:01:13;;;;;;;45.15;15.55;;;;;;;16.54;51.94;96913.50;10315992;28;20026;-32
2023/03/04 16:06:19;;;;;;;36.40;14.77;;;;;;;16.52;51.90;96915.19;10329215;28;20042;-33
2023/03/04 16:11:26;;;;;;;27.35;13.93;;;;;;;16.49;51.39;96920.22;10348588;28;20125;-33
2023/03/04 16:16:26;;;;;;;24.88;12.25;;;;;;;16.44;51.76;96916.78;10344205;28;20040;-32
2023/03/04 16:21:27;;;;;;;35.47;13.67;;;;;;;16.37;52.47;96909.13;10321930;28;20036;-32
2023/03/04 16:26:29;;;;;;;42.47;11.65;;;;;;;16.42;49.20;96923.50;10343546;28;20033;-32
2023/03/04 16:31:30;;;;;;;33.72;13.15;;;;;;;16.26;49.58;96916.53;10345643;28;20046;-32
2023/03/04 16:36:30;;;;;;;32.17;15.50;;;;;;;16.28;46.06;96914.88;10335079;28;20049;-31
2023/03/04 16:41:31;;;;;;;31.70;17.75;;;;;;;16.30;47.00;96915.72;10326249;28;20065;-32
2023/03/04 16:46:31;;;;;;;33.33;18.30;;;;;;;16.22;46.16;96914.81;10322196;28;20049;-33
2023/03/04 16:51:38;;;;;;;30.53;18.27;;;;;;;16.32;47.18;96924.19;10328954;28;20042;-32
2023/03/04 16:56:38;;;;;;;37.72;17.08;;;;;;;16.37;47.49;96934.38;10328419;28;20038;-32
2023/03/04 17:01:39;;;;;;;24.93;14.63;;;;;;;16.40;47.89;96939.47;10327689;28;20025;-32
2023/03/04 17:06:40;;;;;;;24.60;14.17;;;;;;;16.35;48.36;96931.81;10328496;28;20049;-31
2023/03/04 17:11:40;;;;;;;25.70;13.32;;;;;;;16.37;48.53;96934.38;10323340;28;20783;-31
2023/03/04 17:16:41;;;;;;;18.97;12.40;;;;;;;16.34;48.83;96940.22;10322310;28;20050;-31
2023/03/04 17:21:41;;;;;;;18.63;12.75;;;;;;;16.35;48.46;96949.50;10328248;28;20565;-31
2023/03/04 17:26:42;;;;;;;17.93;12.17;;;;;;;16.39;49.03;96961.38;10323396;28;20061;-31
2023/03/04 17:31:42;;;;;;;17.67;11.47;;;;;;;16.38;49.56;96967.22;10327008;28;20041;-32
2023/03/04 17:36:43;;;;;;;20.80;11.88;;;;;;;16.34;49.71;96970.53;10327686;28;20038;-31
2023/03/04 17:41:43;;;;;;;19.93;11.40;;;;;;;16.27;49.90;96966.22;10327508;28;20486;-31
2023/03/04 17:46:47;;;;;;;12.80;9.50;;;;;;;16.36;49.10;96980.66;10326828;28;20388;-31
2023/03/04 17:51:47;;;;;;;18.77;10.93;;;;;;;16.33;49.33;96981.47;10334378;28;20037;-31
2023/03/04 17:56:48;;;;;;;17.02;10.65;;;;;;;16.33;49.51;96981.47;10335098;28;20041;-31
2023/03/04 18:01:49;;;;;;;14.50;9.43;;;;;;;16.33;49.24;96981.47;10329348;28;20022;-31
2023/03/04 18:06:49;;;;;;;11.25;8.82;;;;;;;16.29;49.40;96977.19;10335040;28;20033;-31
2023/03/04 18:11:50;;;;;;;15.90;10.80;;;;;;;16.34;49.39;96989.88;10334333;28;20038;-32
2023/03/04 18:16:51;;;;;;;12.40;9.02;;;;;;;16.31;49.42;96990.72;10333989;28;20058;-31
2023/03/04 18:21:51;;;;;;;14.43;9.00;;;;;;;16.26;50.07;96992.31;10335091;28;20032;-31
2023/03/04 18:26:51;;;;;;;15.77;8.13;;;;;;;16.24;49.77;96994.00;10333894;28;20034;-32
2023/03/04 18:31:52;;;;;;;13.00;8.87;;;;;;;16.20;50.04;96999.81;10333521;28;20041;-31
2023/03/04 18:36:52;;;;;;;11.60;9.17;;;;;;;16.20;49.86;97007.38;10334196;28;20351;-32
2023/03/04 18:41:52;;;;;;;11.97;8.40;;;;;;;16.18;49.67;97009.06;10333836;28;20049;-31
2023/03/04 18:46:55;;;;;;;16.20;9.87;;;;;;;16.19;50.45;97000.66;10332963;28;20296;-31
2023/03/04 18:51:56;;;;;;;11.75;8.43;;;;;;;16.20;50.42;97007.38;10333541;28;20034;-31
2023/03/04 18:57:01;;;;;;;11.75;8.48;;;;;;;16.13;50.56;97005.59;10332751;28;20035;-31
2023/03/04 19:02:08;;;;;;;9.88;7.63;;;;;;;16.15;49.99;97014.06;10332347;28;20510;-31
2023/03/04 19:07:09;;;;;;;9.35;8.38;;;;;;;16.11;50.42;97022.41;10332803;28;20034;-32
2023/03/04 19:12:09;;;;;;;11.63;8.20;;;;;;;16.12;50.04;97016.53;10332571;28;20031;-32
2023/03/04 19:17:09;;;;;;;10.20;7.93;;;;;;;16.11;50.30;97022.41;10331657;28;20390;-31
2023/03/04 19:22:11;;;;;;;9.20;7.80;;;;;;;16.09;50.29;97029.13;10332580;28;20027;-31
2023/03/04 19:27:11;;;;;;;11.45;7.95;;;;;;;16.12;49.86;97028.34;10331668;28;20050;-32
2023/03/04 19:32:12;;;;;;;11.37;8.67;;;;;;;16.08;50.04;97029.97;10331456;28;20050;-32
2023/03/04 19:37:14;;;;;;;9.93;7.78;;;;;;;16.08;50.45;97027.44;10331689;28;20402;-32
2023/03/04 19:42:15;;;;;;;11.93;8.35;;;;;;;16.09;50.06;97026.63;10331168;28;20030;-31
2023/03/04 19:47:16;;;;;;;9.25;7.65;;;;;;;16.06;50.09;97024.06;10330742;28;20096;-31
2023/03/04 19:52:16;;;;;;;9.20;7.30;;;;;;;16.08;49.87;97027.44;10331316;28;20108;-32
2023/03/04 19:57:16;;;;;;;7.73;6.87;;;;;;;16.08;49.88;97027.44;10330744;28;20668;-32
2023/03/04 20:02:17;;;;;;;9.67;7.23;;;;;;;16.11;50.03;97022.41;10330039;28;20380;-31
2023/03/04 20:07:17;;;;;;;19.00;11.07;;;;;;;15.99;48.34;97016.34;10328302;28;20045;-33
2023/03/04 20:12:17;;;;;;;10.10;8.23;;;;;;;16.05;49.55;97004.69;10329016;28;20068;-32
2023/03/04 20:17:18;;;;;;;13.57;8.83;;;;;;;16.12;50.25;97011.50;10324768;28;20458;-31
2023/03/04 20:22:18;;;;;;;13.90;9.67;;;;;;;16.05;51.11;97017.31;10329208;28;20494;-32
2023/03/04 20:27:18;;;;;;;15.57;9.10;;;;;;;16.01;51.31;97015.56;10329559;28;20550;-31
2023/03/04 20:32:19;;;;;;;14.57;8.83;;;;;;;16.02;51.22;97016.41;10318116;28;20046;-31
2023/03/04 20:37:19;;;;;;;10.27;7.75;;;;;;;16.02;51.21;97013.88;10325429;28;20045;-32
2023/03/04 20:42:20;;;;;;;11.98;8.45;;;;;;;16.03;51.43;97013.88;10324675;28;20085;-32
2023/03/04 20:47:20;;;;;;;14.83;7.90;;;;;;;16.14;50.38;97004.81;10323882;28;20449;-32
2023/03/04 20:52:20;;;;;;;12.37;8.20;;;;;;;16.21;50.11;97008.25;10324399;28;20297;-31
2023/03/04 20:57:21;;;;;;;8.77;7.70;;;;;;;16.25;50.04;97015.03;10322659;28;20070;-31
2023/03/04 21:02:22;;;;;;;12.93;8.07;;;;;;;16.29;49.71;97007.50;10317744;28;20037;-31
2023/03/04 21:07:23;;;;;;;14.75;7.90;;;;;;;16.34;50.02;97008.44;10329134;28;20375;-31
2023/03/04 21:12:24;;;;;;;10.20;7.28;;;;;;;16.36;50.37;97006.75;10323398;28;20053;-32
2023/03/04 21:17:25;;;;;;;12.38;7.38;;;;;;;16.52;50.67;97013.75;10320082;28;20057;-31
2023/03/04 21:22:25;;;;;;;12.93;7.17;;;;;;;16.58;50.23;97013.81;10327210;28;20066;-32
2023/03/04 21:27:26;;;;;;;10.98;8.05;;;;;;;16.70;50.11;97005.53;10324993;28;20412;-32
2023/03/04 21:32:27;;;;;;;10.90;7.60;;;;;;;16.69;50.03;97007.22;10315634;28;20034;-32
2023/03/04 21:37:28;;;;;;;12.93;6.72;;;;;;;16.73;50.49;97004.72;10326701;28;20034;-32
2023/03/04 21:42:28;;;;;;;10.95;7.50;;;;;;;16.81;50.25;97002.31;10326531;28;20098;-32
2023/03/04 21:47:28;;;;;;;10.57;6.97;;;;;;;16.86;50.25;96985.47;10326820;28;20049;-31
2023/03/04 21:52:29;;;;;;;16.20;8.07;;;;;;;16.87;50.32;96985.50;10327860;28;20038;-31
2023/03/04 21:57:29;;;;;;;13.17;6.80;;;;;;;16.93;49.71;96967.00;10326674;28;20297;-31
2023/03/04 22:02:30;;;;;;;13.83;7.80;;;;;;;16.88;49.98;96966.09;10326923;28;20026;-32
2023/03/04 22:07:30;;;;;;;18.03;7.23;;;;;;;16.97;49.87;96977.19;10327183;28;21005;-32
2023/03/04 22:12:31;;;;;;;13.80;7.30;;;;;;;17.06;49.61;96976.44;10326513;28;20049;-32
2023/03/04 22:17:32;;;;;;;12.23;7.47;;;;;;;17.08;49.32;96969.69;10326344;28;20034;-32
2023/03/04 22:22:33;;;;;;;9.75;6.38;;;;;;;17.07;49.48;96970.53;10327161;28;20289;-31
2023/03/04 22:27:33;;;;;;;12.33;7.27;;;;;;;16.99;49.29;96959.50;10324447;28;20526;-32
2023/03/04 22:32:33;;;;;;;11.57;7.33;;;;;;;17.07;48.97;96973.06;10326082;28;20811;-32
2023/03/04 22:37:34;;;;;;;10.87;6.80;;;;;;;16.85;48.92;96961.03;10332496;28;20491;-32
2023/03/04 22:42:34;;;;;;;10.93;6.97;;;;;;;16.82;48.90;96968.59;10333629;28;20586;-32
2023/03/04 22:47:34;;;;;;;10.87;7.00;;;;;;;16.75;49.23;96956.72;10333026;28;20042;-32
2023/03/04 22:52:35;;;;;;;11.80;7.80;;;;;;;16.70;49.18;96970.16;10332143;28;20035;-33
2023/03/04 22:57:35;;;;;;;11.70;6.60;;;;;;;16.64;49.37;96965.88;10333151;28;20045;-31
2023/03/04 23:02:36;;;;;;;9.37;6.33;;;;;;;16.62;48.91;96959.09;10332560;28;20050;-32
2023/03/04 23:07:37;;;;;;;8.02;6.18;;;;;;;16.60;49.11;96961.59;10332529;28;20030;-33
2023/03/04 23:12:38;;;;;;;7.15;5.72;;;;;;;16.60;48.83;96958.25;10332528;28;20117;-32